RJOA/HIJ METAR and TAF weather

Enter ICAO airport designator
Station Type Date Time Source
RJOA METAR 2020/12/05 06:00 UTC NOAA

RJOA 050600Z 30005KT 220V360 9999 FEW035 12/M02 Q1024


Station Type Date Time Source
RJOA Decoded METAR 2020/12/05 06:00 UTC NOAA

Hiroshima Airport, Japan (RJOA) 34-26N 132-55E 334M
Dec 05, 2020 - 01:00 AM EST / 2020.12.05 0600 UTC
Wind: from the WNW (300 degrees) at 6 MPH (5 KT) (direction variable):0
Visibility: greater than 7 mile(s):0
Sky conditions: mostly clear
Temperature: 53 F (12 C)
Dew Point: 28 F (-2 C)
Relative Humidity: 37%
Pressure (altimeter): 30.24 in. Hg (1024 hPa)
ob: RJOA 050600Z 30005KT 220V360 9999 FEW035 12/M02 Q1024
cycle: 6

Station Type Date Time Source
RJOA TAF 2020/12/05 06:30 UTC NOAA

TAF RJOA 050507Z 0506/0612 34006KT 9999 FEW035
BECMG 0600/0603 04004KT
BECMG 0606/0609 32006KT

Example: see airport list